Time;durP1;ratioP1;P1;durP2;ratioP2;P2;SDS_P1;SDS_P2;PMS_P1;PMS_P2;Temp;Humidity;BMP_temperature;BMP_pressure;BME280_temperature;BME280_humidity;BME280_pressure;Samples;Min_cycle;Max_cycle;Signal;HPM_P1;HPM_P2
2022/07/24 00:00:19;;;;;;;;;;;;;;;21.59;61.63;96835.66;5076571;28;20302;-72
2022/07/24 00:02:45;;;;;;;;;;;;;;;21.57;61.64;96829.00;5076438;28;19967;-73
2022/07/24 00:05:11;;;;;;;;;;;;;;;21.55;62.21;96839.97;5076453;28;19987;-73
2022/07/24 00:07:37;;;;;;;;;;;;;;;21.53;61.67;96838.66;5076371;28;19959;-73
2022/07/24 00:10:03;;;;;;;;;;;;;;;21.49;61.75;96833.84;5058322;28;19951;-73
2022/07/24 00:12:29;;;;;;;;;;;;;;;21.47;61.69;96832.56;5058111;28;19985;-73
2022/07/24 00:14:55;;;;;;;;;;;;;;;21.47;61.77;96840.56;5058224;28;20022;-73
2022/07/24 00:17:21;;;;;;;;;;;;;;;21.44;61.93;96836.56;5076271;28;20062;-73
2022/07/24 00:19:47;;;;;;;;;;;;;;;21.41;61.72;96834.41;5058085;28;20001;-74
2022/07/24 00:22:13;;;;;;;;;;;;;;;21.39;61.61;96835.78;5075820;28;20410;-73
2022/07/24 00:24:39;;;;;;;;;;;;;;;21.33;62.03;96835.00;5075942;28;19956;-72
2022/07/24 00:27:05;;;;;;;;;;;;;;;21.28;62.10;96835.84;5075774;28;19979;-72
2022/07/24 00:29:31;;;;;;;;;;;;;;;21.25;62.04;96835.59;5075888;28;20420;-73
2022/07/24 00:31:56;;;;;;;;;;;;;;;21.22;62.02;96844.16;5076082;28;19958;-73
2022/07/24 00:34:22;;;;;;;;;;;;;;;21.17;61.94;96829.00;5075726;28;19998;-73
2022/07/24 00:36:48;;;;;;;;;;;;;;;21.12;62.01;96829.00;5075669;28;19989;-73
2022/07/24 00:39:14;;;;;;;;;;;;;;;21.09;61.83;96826.91;5057814;28;20452;-74
2022/07/24 00:41:40;;;;;;;;;;;;;;;21.05;62.00;96826.66;5075854;28;19967;-73
2022/07/24 00:44:10;;;;;;;;;;;;;;;21.03;62.23;96823.47;5057721;28;19959;-73
2022/07/24 00:46:37;;;;;;;;;;;;;;;21.02;62.16;96829.88;5075636;28;19964;-73
2022/07/24 00:49:04;;;;;;;;;;;;;;;21.01;62.38;96830.94;5075426;28;19953;-72
2022/07/24 00:51:30;;;;;;;;;;;;;;;21.00;62.15;96829.34;5075287;28;19987;-72
2022/07/24 00:53:56;;;;;;;;;;;;;;;21.00;62.57;96825.91;5075276;28;19974;-72
2022/07/24 00:56:23;;;;;;;;;;;;;;;20.98;62.50;96820.84;5075472;28;19964;-72
2022/07/24 00:58:48;;;;;;;;;;;;;;;20.97;62.49;96824.56;5075355;28;19963;-72
2022/07/24 01:01:15;;;;;;;;;;;;;;;20.96;62.23;96820.31;5075715;28;19976;-73
2022/07/24 01:03:41;;;;;;;;;;;;;;;20.96;62.41;96820.31;5075500;28;19968;-72
2022/07/24 01:06:07;;;;;;;;;;;;;;;20.95;62.17;96817.91;5075176;28;19970;-72
2022/07/24 01:08:34;;;;;;;;;;;;;;;20.91;62.26;96814.19;5074928;28;19993;-73
2022/07/24 01:11:04;;;;;;;;;;;;;;;20.90;62.56;96809.97;5057167;28;19994;-72
2022/07/24 01:13:30;;;;;;;;;;;;;;;20.88;62.31;96808.34;5075430;28;19976;-72
2022/07/24 01:15:56;;;;;;;;;;;;;;;20.86;62.12;96809.69;5075256;28;20354;-72
2022/07/24 01:18:22;;;;;;;;;;;;;;;20.83;62.19;96807.56;5075342;28;20338;-72
2022/07/24 01:20:49;;;;;;;;;;;;;;;20.80;62.07;96805.47;5074790;28;19962;-72
2022/07/24 01:23:15;;;;;;;;;;;;;;;20.77;62.12;96803.38;5074808;28;19967;-73
2022/07/24 01:25:41;;;;;;;;;;;;;;;20.73;62.22;96804.97;5075188;28;19966;-72
2022/07/24 01:28:07;;;;;;;;;;;;;;;20.70;62.56;96818.84;5073464;28;19965;-72
2022/07/24 01:30:33;;;;;;;;;;;;;;;20.65;62.15;96812.47;5074788;28;20301;-72
2022/07/24 01:32:59;;;;;;;;;;;;;;;20.64;62.49;96818.06;5073959;28;19958;-73
2022/07/24 01:35:25;;;;;;;;;;;;;;;20.61;62.37;96818.63;5073797;28;19978;-73
2022/07/24 01:37:51;;;;;;;;;;;;;;;20.57;62.85;96828.97;5074602;28;20421;-73
2022/07/24 01:40:17;;;;;;;;;;;;;;;20.54;62.47;96820.75;5074650;28;19958;-72
2022/07/24 01:42:43;;;;;;;;;;;;;;;20.51;62.76;96823.94;5074611;28;19964;-72
2022/07/24 01:45:09;;;;;;;;;;;;;;;20.46;63.19;96820.22;5074496;28;19969;-72
2022/07/24 01:47:35;;;;;;;;;;;;;;;20.42;62.88;96826.38;5073975;28;19968;-73
2022/07/24 01:50:01;;;;;;;;;;;;;;;20.36;62.97;96822.13;5062005;28;20055;-72
2022/07/24 01:52:27;;;;;;;;;;;;;;;20.33;62.97;96826.16;5074291;28;20489;-71
2022/07/24 01:54:53;;;;;;;;;;;;;;;20.30;63.21;96823.22;5074027;28;20438;-73
2022/07/24 01:57:19;;;;;;;;;;;;;;;20.26;63.04;96829.09;5074191;28;20007;-72
2022/07/24 01:59:45;;;;;;;;;;;;;;;20.22;63.05;96828.03;5074261;28;20010;-72
2022/07/24 02:02:11;;;;;;;;;;;;;;;20.18;63.29;96826.16;5074202;28;19961;-72
2022/07/24 02:04:36;;;;;;;;;;;;;;;20.15;63.51;96827.50;5074153;28;20422;-72
2022/07/24 02:07:02;;;;;;;;;;;;;;;20.12;63.64;96822.75;5073097;28;19958;-73
2022/07/24 02:09:28;;;;;;;;;;;;;;;20.10;63.75;96818.75;5074275;28;19955;-72
2022/07/24 02:11:54;;;;;;;;;;;;;;;20.05;64.18;96823.03;5073158;28;20079;-72
2022/07/24 02:14:20;;;;;;;;;;;;;;;20.02;63.97;96828.06;5074012;28;20429;-72
2022/07/24 02:16:46;;;;;;;;;;;;;;;19.98;63.93;96822.47;5073824;28;19957;-73
2022/07/24 02:19:12;;;;;;;;;;;;;;;19.95;64.03;96823.03;5073816;28;19957;-74
2022/07/24 02:21:38;;;;;;;;;;;;;;;19.94;64.30;96823.28;5073475;28;20413;-73
2022/07/24 02:24:04;;;;;;;;;;;;;;;19.91;64.47;96819.31;5073667;28;19971;-73
2022/07/24 02:26:30;;;;;;;;;;;;;;;19.87;64.48;96824.38;5073765;28;19980;-73
2022/07/24 02:28:56;;;;;;;;;;;;;;;19.83;65.22;96835.81;5073625;28;20399;-73
2022/07/24 02:31:22;;;;;;;;;;;;;;;19.77;65.32;96827.03;5073783;28;19961;-73
2022/07/24 02:33:48;;;;;;;;;;;;;;;19.75;65.18;96831.03;5073346;28;20056;-74
2022/07/24 02:36:14;;;;;;;;;;;;;;;19.71;65.57;96824.66;5073861;28;19969;-74
2022/07/24 02:38:40;;;;;;;;;;;;;;;19.67;65.74;96825.16;5073573;28;19997;-73
2022/07/24 02:41:06;;;;;;;;;;;;;;;19.64;65.75;96824.88;5073569;28;19980;-73
2022/07/24 02:43:32;;;;;;;;;;;;;;;19.61;65.50;96820.91;5073426;28;19995;-73
2022/07/24 02:45:58;;;;;;;;;;;;;;;19.59;65.91;96817.72;5072567;28;20018;-73
2022/07/24 02:48:24;;;;;;;;;;;;;;;19.55;66.04;96827.28;5073416;28;19953;-74
2022/07/24 02:50:50;;;;;;;;;;;;;;;19.51;65.79;96812.09;5073640;28;19967;-73
2022/07/24 02:53:17;;;;;;;;;;;;;;;19.47;65.89;96815.31;5073302;28;19970;-73
2022/07/24 02:55:43;;;;;;;;;;;;;;;19.45;66.40;96821.97;5073434;28;19969;-73
2022/07/24 02:58:08;;;;;;;;;;;;;;;19.42;66.29;96822.47;5073373;28;20050;-72
2022/07/24 03:00:34;;;;;;;;;;;;;;;19.38;66.38;96827.56;5073511;28;20321;-72
2022/07/24 03:03:01;;;;;;;;;;;;;;;19.34;66.58;96823.81;5073209;28;19961;-73
2022/07/24 03:05:27;;;;;;;;;;;;;;;19.32;66.50;96822.47;5073509;28;19958;-73
2022/07/24 03:07:53;;;;;;;;;;;;;;;19.29;66.51;96828.31;5073563;28;20032;-73
2022/07/24 03:10:19;;;;;;;;;;;;;;;19.25;66.77;96831.50;5073303;28;19995;-73
2022/07/24 03:12:45;;;;;;;;;;;;;;;19.22;67.02;96821.41;5073306;28;19987;-73
2022/07/24 03:15:11;;;;;;;;;;;;;;;19.21;67.52;96817.16;5072758;28;20057;-72
2022/07/24 03:17:37;;;;;;;;;;;;;;;19.18;67.34;96808.91;5073189;28;19965;-71
2022/07/24 03:20:04;;;;;;;;;;;;;;;19.16;67.50;96813.69;5072819;28;19953;-72
2022/07/24 03:22:30;;;;;;;;;;;;;;;19.14;67.65;96815.81;5073078;28;19954;-72
2022/07/24 03:24:56;;;;;;;;;;;;;;;19.12;67.79;96823.25;5072863;28;20368;-72
2022/07/24 03:27:22;;;;;;;;;;;;;;;19.11;68.06;96825.13;5073287;28;19978;-72
2022/07/24 03:29:47;;;;;;;;;;;;;;;19.10;68.00;96823.50;5073086;28;20478;-72
2022/07/24 03:32:13;;;;;;;;;;;;;;;19.07;68.47;96816.06;5073018;28;20049;-72
2022/07/24 03:34:39;;;;;;;;;;;;;;;19.04;69.00;96817.38;5072778;28;19979;-72
2022/07/24 03:37:05;;;;;;;;;;;;;;;19.02;69.10;96818.69;5073052;28;19965;-72
2022/07/24 03:39:31;;;;;;;;;;;;;;;19.00;68.67;96810.19;5073308;28;20398;-72
2022/07/24 03:41:57;;;;;;;;;;;;;;;18.98;68.67;96820.28;5072698;28;19993;-72
2022/07/24 03:44:23;;;;;;;;;;;;;;;18.96;68.94;96827.72;5072771;28;19958;-72
2022/07/24 03:46:48;;;;;;;;;;;;;;;18.93;69.49;96821.06;5072761;28;19990;-72
2022/07/24 03:49:14;;;;;;;;;;;;;;;18.89;69.08;96816.56;5072575;28;20324;-72
2022/07/24 03:51:40;;;;;;;;;;;;;;;18.85;69.25;96819.72;5072852;28;20004;-72
2022/07/24 03:54:06;;;;;;;;;;;;;;;18.82;69.96;96828.22;5072888;28;20059;-72
2022/07/24 03:56:32;;;;;;;;;;;;;;;18.80;69.79;96827.69;5073009;28;19962;-72
2022/07/24 03:58:58;;;;;;;;;;;;;;;18.78;69.79;96827.16;5076459;28;19957;-72
2022/07/24 04:01:24;;;;;;;;;;;;;;;18.75;70.41;96824.16;5076058;28;19965;-72
2022/07/24 04:03:49;;;;;;;;;;;;;;;18.72;69.71;96822.84;5058527;28;20411;-72
2022/07/24 04:06:16;;;;;;;;;;;;;;;18.71;69.90;96826.56;5076331;28;19975;-72
2022/07/24 04:08:41;;;;;;;;;;;;;;;18.70;70.69;96829.47;5076485;28;19953;-72
2022/07/24 04:11:07;;;;;;;;;;;;;;;18.71;70.00;96836.38;5075886;28;20400;-72
2022/07/24 04:13:33;;;;;;;;;;;;;;;18.72;69.75;96833.47;5076343;28;19963;-72
2022/07/24 04:15:59;;;;;;;;;;;;;;;18.73;69.87;96835.09;5075953;28;19976;-72
2022/07/24 04:18:25;;;;;;;;;;;;;;;18.73;70.41;96844.88;5076257;28;20077;-72
2022/07/24 04:20:51;;;;;;;;;;;;;;;18.74;70.36;96847.28;5076139;28;19975;-72
2022/07/24 04:23:17;;;;;;;;;;;;;;;18.77;70.59;96840.66;5076026;28;20329;-72
2022/07/24 04:25:43;;;;;;;;;;;;;;;18.77;70.59;96836.16;5075325;28;19961;-72
2022/07/24 04:28:09;;;;;;;;;;;;;;;18.79;70.70;96839.38;5075790;28;19964;-72
2022/07/24 04:30:35;;;;;;;;;;;;;;;18.79;70.30;96844.69;5057373;28;20026;-72
2022/07/24 04:33:01;;;;;;;;;;;;;;;18.82;70.40;96838.84;5058160;28;19958;-72
2022/07/24 04:35:26;;;;;;;;;;;;;;;18.86;70.77;96845.25;5074908;28;20038;-71
2022/07/24 04:37:52;;;;;;;;;;;;;;;18.92;70.33;96848.72;5075557;28;19966;-72
2022/07/24 04:40:18;;;;;;;;;;;;;;;18.98;70.73;96846.84;5075750;28;20045;-72
2022/07/24 04:42:44;;;;;;;;;;;;;;;19.04;70.52;96846.59;5060743;28;19958;-71
2022/07/24 04:45:11;;;;;;;;;;;;;;;19.12;70.70;96844.53;5075522;28;20013;-72
2022/07/24 04:47:37;;;;;;;;;;;;;;;19.21;70.25;96848.25;5075445;28;19956;-72
2022/07/24 04:50:04;;;;;;;;;;;;;;;19.27;69.95;96834.69;5057404;28;20023;-72
2022/07/24 04:52:30;;;;;;;;;;;;;;;19.38;70.10;96840.84;5075811;28;19999;-72
2022/07/24 04:54:55;;;;;;;;;;;;;;;19.49;70.56;96841.66;5075303;28;20431;-72
2022/07/24 04:57:21;;;;;;;;;;;;;;;19.58;69.05;96840.03;5075183;28;19994;-72
2022/07/24 04:59:47;;;;;;;;;;;;;;;19.67;68.07;96835.81;5075222;28;19975;-72
2022/07/24 05:02:13;;;;;;;;;;;;;;;19.78;68.04;96841.13;5075082;28;20296;-72
2022/07/24 05:04:39;;;;;;;;;;;;;;;19.90;68.49;96843.53;5075746;28;20006;-72
2022/07/24 05:07:05;;;;;;;;;;;;;;;20.05;68.02;96838.19;5074717;28;20400;-72
2022/07/24 05:09:31;;;;;;;;;;;;;;;20.19;66.54;96830.44;5074049;28;19956;-72
2022/07/24 05:11:57;;;;;;;;;;;;;;;20.31;65.99;96830.16;5074809;28;20003;-72
2022/07/24 05:14:23;;;;;;;;;;;;;;;20.39;65.53;96827.72;5074654;28;19964;-72
2022/07/24 05:16:49;;;;;;;;;;;;;;;20.48;64.95;96825.31;5074715;28;19984;-72
2022/07/24 05:19:15;;;;;;;;;;;;;;;20.63;64.65;96824.47;5075120;28;20064;-72
2022/07/24 05:21:40;;;;;;;;;;;;;;;20.81;64.38;96826.53;5074705;28;19982;-72
2022/07/24 05:24:06;;;;;;;;;;;;;;;21.01;64.01;96822.16;5074736;28;20485;-72
2022/07/24 05:26:32;;;;;;;;;;;;;;;21.20;63.20;96820.41;5075092;28;20311;-71
2022/07/24 05:28:59;;;;;;;;;;;;;;;21.40;62.71;96808.81;5056755;28;20054;-72
2022/07/24 05:31:25;;;;;;;;;;;;;;;21.59;62.26;96805.50;5074677;28;19974;-72
2022/07/24 05:33:51;;;;;;;;;;;;;;;21.79;62.03;96804.53;5074759;28;19965;-72
2022/07/24 05:36:18;;;;;;;;;;;;;;;22.02;61.97;96801.09;5074553;28;20003;-72
2022/07/24 05:38:44;;;;;;;;;;;;;;;22.32;61.51;96801.88;5074943;28;19962;-72
2022/07/24 05:41:10;;;;;;;;;;;;;;;22.53;59.93;96794.41;5074311;28;20326;-72
2022/07/24 05:43:36;;;;;;;;;;;;;;;22.71;59.39;96790.19;5074537;28;20343;-72
2022/07/24 05:46:03;;;;;;;;;;;;;;;22.90;59.45;96782.97;5056489;28;19961;-72
2022/07/24 05:48:28;;;;;;;;;;;;;;;23.08;58.52;96778.75;5074232;28;19963;-72
2022/07/24 05:50:54;;;;;;;;;;;;;;;23.30;58.63;96780.81;5074574;28;19968;-72
2022/07/24 05:53:20;;;;;;;;;;;;;;;23.44;58.27;96772.03;5074347;28;20318;-73
2022/07/24 05:55:46;;;;;;;;;;;;;;;23.48;57.73;96773.84;5074496;28;20059;-72
2022/07/24 05:58:12;;;;;;;;;;;;;;;23.44;57.24;96772.03;5073732;28;19970;-72
2022/07/24 06:00:38;;;;;;;;;;;;;;;23.55;57.56;96778.81;5073955;28;19962;-72
2022/07/24 06:03:04;;;;;;;;;;;;;;;23.60;57.04;96769.88;5074578;28;19960;-72
2022/07/24 06:05:30;;;;;;;;;;;;;;;23.76;57.49;96781.16;5073907;28;19963;-72
2022/07/24 06:07:56;;;;;;;;;;;;;;;23.90;56.87;96773.97;5074164;28;20497;-72
2022/07/24 06:10:22;;;;;;;;;;;;;;;23.96;57.02;96766.59;5073867;28;20003;-72
2022/07/24 06:12:48;;;;;;;;;;;;;;;24.07;56.01;96763.47;5073360;28;19982;-72
2022/07/24 06:15:13;;;;;;;;;;;;;;;24.23;56.40;96765.81;5073711;28;20432;-72
2022/07/24 06:17:40;;;;;;;;;;;;;;;24.46;55.79;96762.16;5074167;28;20069;-72
2022/07/24 06:20:07;;;;;;;;;;;;;;;24.55;54.29;96748.06;5073644;28;19958;-72
2022/07/24 06:22:32;;;;;;;;;;;;;;;24.55;54.16;96745.38;5073511;28;19965;-72
2022/07/24 06:24:58;;;;;;;;;;;;;;;24.42;54.56;96749.63;5073671;28;19965;-72
2022/07/24 06:27:24;;;;;;;;;;;;;;;24.30;54.39;96747.47;5073426;28;19998;-72
2022/07/24 06:29:50;;;;;;;;;;;;;;;24.28;53.62;96745.09;5073628;28;19990;-72
2022/07/24 06:32:16;;;;;;;;;;;;;;;24.19;54.48;96752.25;5073366;28;20681;-72
2022/07/24 06:34:42;;;;;;;;;;;;;;;23.98;54.52;96764.44;5073639;28;19965;-72
2022/07/24 06:37:08;;;;;;;;;;;;;;;23.82;55.11;96766.59;5073583;28;20016;-72
2022/07/24 06:39:33;;;;;;;;;;;;;;;23.86;52.71;96746.19;5073995;28;19965;-71
2022/07/24 06:41:59;;;;;;;;;;;;;;;23.88;54.78;96768.09;5073302;28;20057;-73
2022/07/24 06:44:25;;;;;;;;;;;;;;;23.61;54.74;96764.25;5073964;28;20408;-72
2022/07/24 06:46:52;;;;;;;;;;;;;;;23.57;55.61;96767.81;5073552;28;20050;-72
2022/07/24 06:49:17;;;;;;;;;;;;;;;23.77;55.62;96774.72;5073804;28;19986;-72
2022/07/24 06:51:43;;;;;;;;;;;;;;;23.96;54.29;96759.38;5073681;28;20426;-72
2022/07/24 06:54:09;;;;;;;;;;;;;;;24.22;54.10;96748.97;5073647;28;20052;-72
2022/07/24 06:56:35;;;;;;;;;;;;;;;24.41;53.54;96740.81;5073300;28;20070;-72
2022/07/24 06:59:01;;;;;;;;;;;;;;;24.64;53.34;96743.59;5073801;28;19966;-71
2022/07/24 07:01:27;;;;;;;;;;;;;;;24.67;52.69;96732.25;5073382;28;19968;-72
2022/07/24 07:03:53;;;;;;;;;;;;;;;24.77;53.98;96750.81;5073432;28;20004;-72
2022/07/24 07:06:19;;;;;;;;;;;;;;;24.98;52.96;96747.66;5073575;28;19959;-71
2022/07/24 07:08:45;;;;;;;;;;;;;;;25.03;52.94;96742.97;5055593;28;19975;-72
2022/07/24 07:11:11;;;;;;;;;;;;;;;25.12;52.12;96732.31;5055379;28;19990;-72
2022/07/24 07:13:37;;;;;;;;;;;;;;;25.21;51.85;96735.09;5073241;28;19982;-73
2022/07/24 07:16:03;;;;;;;;;;;;;;;25.28;51.83;96735.44;5072523;28;20372;-72
2022/07/24 07:18:29;;;;;;;;;;;;;;;25.51;52.37;96746.94;5055980;28;19969;-72
2022/07/24 07:20:55;;;;;;;;;;;;;;;25.59;51.36;96742.75;5055452;28;20016;-72
2022/07/24 07:23:21;;;;;;;;;;;;;;;25.61;50.99;96737.84;5073314;28;20054;-72
2022/07/24 07:25:47;;;;;;;;;;;;;;;25.60;50.31;96733.56;5073355;28;19962;-72
2022/07/24 07:28:13;;;;;;;;;;;;;;;25.64;50.77;96745.28;5073222;28;19971;-72
2022/07/24 07:30:39;;;;;;;;;;;;;;;25.84;51.89;96758.19;5073733;28;20411;-72
2022/07/24 07:33:05;;;;;;;;;;;;;;;26.11;50.83;96740.31;5075904;28;20020;-73
2022/07/24 07:35:31;;;;;;;;;;;;;;;26.31;48.86;96733.56;5077104;28;19967;-72
2022/07/24 07:37:57;;;;;;;;;;;;;;;26.33;48.98;96748.31;5077154;28;20311;-72
2022/07/24 07:40:24;;;;;;;;;;;;;;;26.30;50.28;96758.88;5076787;28;19966;-72
2022/07/24 07:42:50;;;;;;;;;;;;;;;26.26;50.30;96756.00;5077376;28;19961;-72
2022/07/24 07:45:16;;;;;;;;;;;;;;;26.25;49.83;96749.06;5076761;28;20005;-72
2022/07/24 07:47:42;;;;;;;;;;;;;;;26.35;49.62;96744.50;5059187;28;19961;-72
2022/07/24 07:50:08;;;;;;;;;;;;;;;26.50;49.21;96744.03;5076760;28;20348;-72
2022/07/24 07:52:34;;;;;;;;;;;;;;;26.60;47.59;96741.09;5076945;28;19974;-72
2022/07/24 07:55:00;;;;;;;;;;;;;;;26.67;48.44;96744.13;5076604;28;19973;-73
2022/07/24 07:57:25;;;;;;;;;;;;;;;26.72;47.04;96740.47;5076695;28;20012;-72
2022/07/24 07:59:51;;;;;;;;;;;;;;;26.80;48.14;96757.75;5076661;28;19968;-72
2022/07/24 08:02:17;;;;;;;;;;;;;;;26.91;49.36;96764.41;5041989;28;19967;-72
2022/07/24 08:04:43;;;;;;;;;;;;;;;26.99;45.46;96739.38;5076593;28;20004;-72
2022/07/24 08:07:09;;;;;;;;;;;;;;;27.06;47.51;96763.91;5076512;28;20059;-72
2022/07/24 08:09:35;;;;;;;;;;;;;;;27.25;46.80;96765.53;5076445;28;20410;-72
2022/07/24 08:12:01;;;;;;;;;;;;;;;27.46;45.26;96757.59;5076244;28;20356;-72
2022/07/24 08:14:27;;;;;;;;;;;;;;;27.45;43.82;96770.25;5076188;28;20057;-72
2022/07/24 08:16:52;;;;;;;;;;;;;;;27.49;44.57;96779.28;5076369;28;19979;-72
2022/07/24 08:19:18;;;;;;;;;;;;;;;27.65;42.76;96771.47;5076525;28;20321;-72
2022/07/24 08:21:45;;;;;;;;;;;;;;;27.71;44.24;96783.66;5076213;28;20015;-75
2022/07/24 08:24:11;;;;;;;;;;;;;;;27.66;42.67;96778.47;5076023;28;19972;-72
2022/07/24 08:26:38;;;;;;;;;;;;;;;27.78;44.84;96793.16;5077638;28;20025;-71
2022/07/24 08:29:04;;;;;;;;;;;;;;;27.84;40.57;96778.41;5076200;28;19966;-72
2022/07/24 08:31:30;;;;;;;;;;;;;;;27.79;42.65;96784.78;5076090;28;20413;-72
2022/07/24 08:33:56;;;;;;;;;;;;;;;27.92;41.02;96769.53;5076036;28;20006;-72
2022/07/24 08:36:21;;;;;;;;;;;;;;;28.00;41.42;96760.63;5057997;28;19967;-73
2022/07/24 08:38:47;;;;;;;;;;;;;;;28.16;42.20;96769.00;5076325;28;19966;-72
2022/07/24 08:41:14;;;;;;;;;;;;;;;28.29;41.24;96764.47;5075706;28;19958;-72
2022/07/24 08:43:39;;;;;;;;;;;;;;;28.34;41.30;96767.75;5074639;28;19964;-72
2022/07/24 08:46:08;;;;;;;;;;;;;;;28.42;40.24;96752.66;5075984;28;19969;-72
2022/07/24 08:48:34;;;;;;;;;;;;;;;28.32;39.08;96753.03;5057967;28;20445;-72
2022/07/24 08:51:01;;;;;;;;;;;;;;;28.35;41.09;96771.28;5075857;28;20079;-73
2022/07/24 08:53:27;;;;;;;;;;;;;;;28.44;37.10;96749.66;5057540;28;19962;-73
2022/07/24 08:55:53;;;;;;;;;;;;;;;28.54;41.42;96777.06;5057713;28;19990;-72
2022/07/24 08:58:18;;;;;;;;;;;;;;;28.61;40.08;96768.44;5075337;28;19960;-73
2022/07/24 09:00:44;;;;;;;;;;;;;;;28.44;40.05;96773.91;5057969;28;20405;-73
2022/07/24 09:03:12;;;;;;;;;;;;;;;28.34;39.96;96773.16;5057515;28;20052;-73
2022/07/24 09:05:57;;;;;;;;;;;;;;;28.46;40.56;96780.56;5075418;28;19959;-72
2022/07/24 09:08:23;;;;;;;;;;;;;;;28.63;39.27;96765.44;5032453;28;20357;-72
2022/07/24 09:10:58;;;;;;;;;;;;;;;28.64;39.30;96758.91;5075134;28;19986;-73
2022/07/24 09:13:26;;;;;;;;;;;;;;;28.69;40.79;96764.13;5075227;28;19967;-72
2022/07/24 09:15:53;;;;;;;;;;;;;;;28.82;40.18;96765.75;5075121;28;20484;-73
2022/07/24 09:18:26;;;;;;;;;;;;;;;28.79;37.92;96755.63;5057377;28;19961;-72
2022/07/24 09:20:52;;;;;;;;;;;;;;;28.61;37.84;96756.88;5074963;28;19966;-72
2022/07/24 09:23:21;;;;;;;;;;;;;;;28.48;38.84;96756.75;5075152;28;19978;-73
2022/07/24 09:25:54;;;;;;;;;;;;;;;28.57;39.98;96766.72;5075253;28;19963;-72
2022/07/24 09:28:20;;;;;;;;;;;;;;;28.67;38.19;96761.75;5074976;28;19954;-72
2022/07/24 09:30:50;;;;;;;;;;;;;;;28.77;38.55;96755.19;5074979;28;19972;-73
2022/07/24 09:33:17;;;;;;;;;;;;;;;28.76;37.62;96753.59;5074912;28;19958;-72
2022/07/24 09:35:44;;;;;;;;;;;;;;;28.69;38.79;96759.50;5074633;28;19980;-73
2022/07/24 09:38:12;;;;;;;;;;;;;;;28.83;38.52;96753.88;5074641;28;19953;-72
2022/07/24 09:40:40;;;;;;;;;;;;;;;29.01;39.26;96751.03;5074630;28;19967;-73
2022/07/24 09:43:12;;;;;;;;;;;;;;;29.10;37.58;96747.13;5074415;28;19970;-73
2022/07/24 09:45:51;;;;;;;;;;;;;;;29.14;35.87;96739.19;5074967;28;20329;-73
2022/07/24 09:48:18;;;;;;;;;;;;;;;29.15;36.45;96756.97;5074424;28;20711;-72
2022/07/24 09:50:51;;;;;;;;;;;;;;;29.10;37.77;96762.56;5074528;28;19953;-73
2022/07/24 09:53:18;;;;;;;;;;;;;;;29.21;38.06;96749.44;5074447;28;19968;-73
2022/07/24 09:55:44;;;;;;;;;;;;;;;29.22;34.87;96732.91;5073887;28;19973;-73
2022/07/24 09:58:16;;;;;;;;;;;;;;;29.14;37.11;96741.88;5073909;28;19967;-73
2022/07/24 10:00:43;;;;;;;;;;;;;;;29.16;36.53;96728.84;5073234;28;19966;-72
2022/07/24 10:03:13;;;;;;;;;;;;;;;29.16;37.11;96731.53;5056679;28;20426;-72
2022/07/24 10:05:42;;;;;;;;;;;;;;;29.19;36.95;96743.56;5061339;28;20435;-72
2022/07/24 10:08:13;;;;;;;;;;;;;;;29.30;36.95;96729.34;5074381;28;19957;-73
2022/07/24 10:10:41;;;;;;;;;;;;;;;29.37;36.51;96734.19;5074320;28;19966;-73
2022/07/24 10:13:08;;;;;;;;;;;;;;;29.47;35.35;96722.97;5059354;28;19958;-73
2022/07/24 10:15:39;;;;;;;;;;;;;;;29.51;35.08;96720.41;5056483;28;19982;-73
2022/07/24 10:18:16;;;;;;;;;;;;;;;29.50;35.75;96725.03;5074191;28;20335;-73
2022/07/24 10:20:43;;;;;;;;;;;;;;;29.42;34.91;96716.97;5073976;28;20326;-72
2022/07/24 10:23:15;;;;;;;;;;;;;;;29.49;36.45;96726.13;5055929;28;19971;-73
2022/07/24 10:25:52;;;;;;;;;;;;;;;29.58;35.91;96733.34;5074202;28;20353;-73
2022/07/24 10:28:23;;;;;;;;;;;;;;;29.63;33.74;96711.50;5073863;28;19965;-73
2022/07/24 10:30:49;;;;;;;;;;;;;;;29.78;35.59;96719.00;5073629;28;19967;-73
2022/07/24 10:33:15;;;;;;;;;;;;;;;29.95;36.19;96726.91;5073954;28;20395;-73
2022/07/24 10:35:42;;;;;;;;;;;;;;;30.05;35.45;96725.69;5073614;28;19979;-72
2022/07/24 10:38:12;;;;;;;;;;;;;;;30.15;33.15;96708.19;5074621;28;20459;-72
2022/07/24 10:40:42;;;;;;;;;;;;;;;30.04;32.50;96705.16;5073744;28;19968;-72
2022/07/24 10:43:09;;;;;;;;;;;;;;;29.95;34.87;96715.31;5073920;28;19962;-73
2022/07/24 10:45:36;;;;;;;;;;;;;;;30.08;34.29;96711.47;5073469;28;19966;-73
2022/07/24 10:48:23;;;;;;;;;;;;;;;29.98;33.18;96706.50;5073526;28;19966;-73
2022/07/24 10:53:29;;;;;;;;;;;;;;;30.40;35.09;96719.03;5073958;28;19980;-73
2022/07/24 10:56:13;;;;;;;;;;;;;;;30.71;34.64;96710.28;5055494;28;20371;-75
2022/07/24 10:59:08;;;;;;;;;;;;;;;30.96;33.81;96711.03;5055442;28;19969;-73
2022/07/24 11:01:44;;;;;;;;;;;;;;;31.12;35.48;96709.16;5060316;28;19976;-72
2022/07/24 11:04:18;;;;;;;;;;;;;;;31.30;34.29;96700.72;5073514;28;19965;-73
2022/07/24 11:06:46;;;;;;;;;;;;;;;31.39;32.81;96695.13;5073838;28;19955;-73
2022/07/24 11:09:12;;;;;;;;;;;;;;;31.54;33.81;96697.91;5059902;28;19957;-72
2022/07/24 11:11:50;;;;;;;;;;;;;;;31.52;32.56;96694.75;5077547;28;20002;-72
2022/07/24 11:14:17;;;;;;;;;;;;;;;31.34;33.18;96696.97;5077717;28;19964;-73
2022/07/24 11:16:43;;;;;;;;;;;;;;;31.36;34.38;96699.34;5077653;28;19981;-74
2022/07/24 11:19:09;;;;;;;;;;;;;;;31.13;34.09;96689.06;5077936;28;20013;-73
2022/07/24 11:21:37;;;;;;;;;;;;;;;30.92;34.35;96699.31;5077341;28;19960;-73
2022/07/24 11:24:22;;;;;;;;;;;;;;;30.79;34.92;96706.66;5077495;28;19962;-73
2022/07/24 11:26:51;;;;;;;;;;;;;;;30.89;34.88;96695.38;5077360;28;19976;-73
2022/07/24 11:29:18;;;;;;;;;;;;;;;31.16;34.49;96693.00;5077176;28;20309;-73
2022/07/24 11:31:46;;;;;;;;;;;;;;;31.33;34.68;96684.56;5076653;28;19965;-73
2022/07/24 11:34:11;;;;;;;;;;;;;;;31.22;34.63;96683.47;5077215;28;19964;-74
2022/07/24 11:36:44;;;;;;;;;;;;;;;31.03;34.50;96677.94;5077060;28;20057;-73
2022/07/24 11:39:11;;;;;;;;;;;;;;;30.81;34.75;96681.97;5059541;28;20428;-73
2022/07/24 11:41:47;;;;;;;;;;;;;;;30.68;34.68;96687.41;5076839;28;19976;-73
2022/07/24 11:44:13;;;;;;;;;;;;;;;30.59;34.99;96681.31;5077173;28;19968;-74
2022/07/24 11:46:40;;;;;;;;;;;;;;;30.47;34.76;96678.66;5076801;28;19964;-73
2022/07/24 11:49:09;;;;;;;;;;;;;;;30.32;35.24;96680.94;5076980;28;20436;-73
2022/07/24 11:51:41;;;;;;;;;;;;;;;30.26;35.05;96676.88;5077078;28;20420;-73
2022/07/24 11:54:08;;;;;;;;;;;;;;;30.20;35.50;96672.00;5076633;28;19970;-73
2022/07/24 11:56:33;;;;;;;;;;;;;;;30.17;35.83;96675.41;5076537;28;19981;-73
2022/07/24 11:59:00;;;;;;;;;;;;;;;30.10;35.72;96673.28;5076709;28;20042;-74
2022/07/24 12:01:25;;;;;;;;;;;;;;;30.06;36.27;96662.34;5076682;28;19991;-75
2022/07/24 12:03:52;;;;;;;;;;;;;;;30.04;36.87;96670.00;5076924;28;19958;-74
2022/07/24 12:06:19;;;;;;;;;;;;;;;29.99;36.63;96661.31;5076189;28;20411;-73
2022/07/24 12:08:45;;;;;;;;;;;;;;;30.03;35.67;96646.00;5076364;28;19977;-74
2022/07/24 12:11:11;;;;;;;;;;;;;;;30.29;35.93;96649.16;5076220;28;19983;-74
2022/07/24 12:13:41;;;;;;;;;;;;;;;30.60;36.12;96647.72;5058512;28;19962;-74
2022/07/24 12:16:07;;;;;;;;;;;;;;;30.81;34.74;96634.00;5076796;28;20005;-73
2022/07/24 12:18:33;;;;;;;;;;;;;;;30.78;34.24;96636.59;5075881;28;19959;-73
2022/07/24 12:21:00;;;;;;;;;;;;;;;30.65;34.40;96635.88;5076329;28;20070;-73
2022/07/24 12:23:29;;;;;;;;;;;;;;;30.49;34.79;96636.59;5076436;28;19961;-73
2022/07/24 12:25:55;;;;;;;;;;;;;;;30.29;35.04;96635.63;5076333;28;20415;-73
2022/07/24 12:28:21;;;;;;;;;;;;;;;30.07;35.24;96636.88;5076109;28;20013;-73
2022/07/24 12:30:48;;;;;;;;;;;;;;;30.08;35.63;96641.16;5076173;28;20370;-74
2022/07/24 12:33:14;;;;;;;;;;;;;;;30.02;34.45;96626.28;5075904;28;19962;-74
2022/07/24 12:35:54;;;;;;;;;;;;;;;29.99;35.69;96626.16;5075865;28;20045;-73
2022/07/24 12:38:25;;;;;;;;;;;;;;;30.25;34.70;96620.38;5076121;28;19962;-73
2022/07/24 12:40:51;;;;;;;;;;;;;;;30.58;34.99;96606.69;5075823;28;20444;-74
2022/07/24 12:43:16;;;;;;;;;;;;;;;30.92;34.11;96608.00;5075741;28;19966;-73
2022/07/24 12:45:42;;;;;;;;;;;;;;;31.22;33.32;96602.19;5076005;28;20022;-73
2022/07/24 12:48:08;;;;;;;;;;;;;;;31.50;32.86;96587.81;5075325;28;20025;-74